Time;durP1;ratioP1;P1;durP2;ratioP2;P2;SDS_P1;SDS_P2;PMS_P1;PMS_P2;Temp;Humidity;BMP_temperature;BMP_pressure;BME280_temperature;BME280_humidity;BME280_pressure;Samples;Min_cycle;Max_cycle;Signal;HPM_P1;HPM_P2
2022/06/02 00:01:51;;;;;;;1528.90;464.70;;;;;;;;;;6244996;22;19910;-90
2022/06/02 00:04:18;;;;;;;;;;;;;;;;;;6273044;22;20029;-90
2022/06/02 00:06:47;;;;;;;1694.07;497.67;;;;;;;;;;6270490;22;20344;-92
2022/06/02 00:09:13;;;;;;;;;;;;;;;;;;6271154;22;20000;-92
2022/06/02 00:11:53;;;;;;;1713.28;493.90;;;;;;;;;;6241813;22;20394;-91
2022/06/02 00:14:19;;;;;;;;;;;;;;;;;;6244877;22;20352;-91
2022/06/02 00:16:45;;;;;;;;;;;;;;;;;;6272556;22;20026;-92
2022/06/02 00:19:34;;;;;;;1688.35;494.83;;;;;;;;;;6241510;22;20675;-92
2022/06/02 00:21:59;;;;;;;;;;;;;;;;;;6244424;22;20317;-90
2022/06/02 00:24:28;;;;;;;;;;;;;;;;;;6268055;22;20915;-94
2022/06/02 00:26:53;;;;;;;;;;;;;;;;;;6245313;22;20431;-92
2022/06/02 00:29:19;;;;;;;;;;;;;;;;;;6270031;22;20424;-90
2022/06/02 00:31:45;;;;;;;;;;;;;;;;;;6269297;22;25099;-92
2022/06/02 00:34:11;;;;;;;;;;;;;;;;;;6271680;22;19899;-93
2022/06/02 00:36:37;;;;;;;;;;;;;;;;;;6271240;22;19966;-92
2022/06/02 00:39:03;;;;;;;;;;;;;;;;;;6269383;22;20375;-93
2022/06/02 00:41:29;;;;;;;;;;;;;;;;;;6241889;22;20711;-93
2022/06/02 00:43:57;;;;;;;;;;;;;;;;;;6243619;22;20023;-92
2022/06/02 00:46:23;;;;;;;;;;;;;;;;;;6267511;22;20356;-91
2022/06/02 00:48:49;;;;;;;;;;;;;;;;;;6243724;22;24050;-93
2022/06/02 00:51:15;;;;;;;;;;;;;;;;;;6272085;22;19978;-92
2022/06/02 00:53:41;;;;;;;;;;;;;;;;;;6272220;22;19903;-89
2022/06/02 00:58:51;;;;;;;;;;;;;;;;;;6270337;22;20342;-88
2022/06/02 01:01:18;;;;;;;;;;;;;;;;;;6272136;22;24105;-91
2022/06/02 01:03:48;;;;;;;1720.50;514.70;;;;;;;;;;6267969;22;20355;-90
2022/06/02 01:06:14;;;;;;;;;;;;;;;;;;6245349;22;20026;-93
2022/06/02 01:08:40;;;;;;;1725.90;508.35;;;;;;;;;;6267749;22;20352;-92
2022/06/02 01:11:06;;;;;;;;;;;;;;;;;;6243053;22;20086;-93
2022/06/02 01:13:32;;;;;;;;;;;;;;;;;;6244503;22;20027;-92
2022/06/02 01:16:00;;;;;;;1717.70;511.40;;;;;;;;;;6266271;22;20344;-92
2022/06/02 01:18:26;;;;;;;;;;;;;;;;;;6270638;22;20275;-90
2022/06/02 01:20:52;;;;;;;;;;;;;;;;;;6273426;22;20002;-93
2022/06/02 01:23:18;;;;;;;;;;;;;;;;;;6274948;22;20374;-88
2022/06/02 01:25:44;;;;;;;;;;;;;;;;;;6302321;22;20013;-87
2022/06/02 01:28:10;;;;;;;;;;;;;;;;;;6300479;22;20016;-90
2022/06/02 01:30:37;;;;;;;;;;;;;;;;;;6273846;22;24031;-92
2022/06/02 01:33:03;;;;;;;1694.57;511.15;;;;;;;;;;6269739;22;20340;-93
2022/06/02 01:35:29;;;;;;;;;;;;;;;;;;6247523;22;20507;-92
2022/06/02 01:37:55;;;;;;;;;;;;;;;;;;6243141;22;20433;-92
2022/06/02 01:40:21;;;;;;;;;;;;;;;;;;6274143;22;20031;-92
2022/06/02 01:42:56;;;;;;;1719.75;511.55;;;;;;;;;;6245631;22;20339;-91
2022/06/02 01:45:22;;;;;;;;;;;;;;;;;;6274589;22;20025;-89
2022/06/02 01:47:48;;;;;;;;;;;;;;;;;;6274688;22;20216;-90
2022/06/02 01:50:14;;;;;;;;;;;;;;;;;;6273133;22;20333;-90
2022/06/02 01:52:40;;;;;;;;;;;;;;;;;;6274555;22;20022;-91
2022/06/02 01:55:06;;;;;;;;;;;;;;;;;;6271789;22;20339;-91
2022/06/02 01:57:32;;;;;;;;;;;;;;;;;;6274058;22;20103;-90
2022/06/02 01:59:58;;;;;;;;;;;;;;;;;;6245169;22;20361;-91
2022/06/02 02:02:24;;;;;;;;;;;;;;;;;;6272194;22;20343;-91
2022/06/02 02:04:50;;;;;;;;;;;;;;;;;;6244854;22;20352;-91
2022/06/02 02:07:16;;;;;;;;;;;;;;;;;;6274456;22;24057;-89
2022/06/02 02:09:42;;;;;;;;;;;;;;;;;;6270640;22;25107;-89
2022/06/02 02:12:08;;;;;;;;;;;;;;;;;;6246479;22;20107;-90
2022/06/02 02:14:33;;;;;;;;;;;;;;;;;;6270493;22;20799;-89
2022/06/02 02:16:59;;;;;;;;;;;;;;;;;;6245722;22;25053;-88
2022/06/02 02:19:25;;;;;;;;;;;;;;;;;;6243581;22;25060;-89
2022/06/02 02:21:51;;;;;;;;;;;;;;;;;;6273828;22;20272;-89
2022/06/02 02:24:17;;;;;;;;;;;;;;;;;;6244776;22;25076;-88
2022/06/02 02:26:43;;;;;;;;;;;;;;;;;;6245901;22;20014;-89
2022/06/02 02:29:09;;;;;;;;;;;;;;;;;;6271453;22;20859;-89
2022/06/02 02:31:35;;;;;;;;;;;;;;;;;;6244472;22;19997;-91
2022/06/02 02:34:01;;;;;;;;;;;;;;;;;;6268973;22;20490;-91
2022/06/02 02:36:28;;;;;;;;;;;;;;;;;;6272576;22;20088;-88
2022/06/02 02:38:54;;;;;;;;;;;;;;;;;;6269560;22;20333;-88
2022/06/02 02:41:20;;;;;;;;;;;;;;;;;;6272655;22;20051;-89
2022/06/02 02:43:45;;;;;;;;;;;;;;;;;;6270679;22;20348;-89
2022/06/02 02:46:11;;;;;;;;;;;;;;;;;;6272761;22;19899;-88
2022/06/02 02:48:37;;;;;;;;;;;;;;;;;;6269378;22;20419;-88
2022/06/02 02:51:03;;;;;;;;;;;;;;;;;;6272054;22;20100;-89
2022/06/02 02:53:29;;;;;;;;;;;;;;;;;;6242301;22;20336;-89
2022/06/02 02:55:55;;;;;;;;;;;;;;;;;;6244550;22;24060;-91
2022/06/02 02:58:21;;;;;;;;;;;;;;;;;;6270008;22;20401;-91
2022/06/02 03:00:48;;;;;;;;;;;;;;;;;;6269294;22;20421;-90
2022/06/02 03:03:16;;;;;;;;;;;;;;;;;;6272805;22;20220;-91
2022/06/02 03:05:41;;;;;;;;;;;;;;;;;;6242202;22;20740;-90
2022/06/02 03:08:09;;;;;;;;;;;;;;;;;;6244396;22;20499;-91
2022/06/02 03:10:35;;;;;;;;;;;;;;;;;;6271887;22;20020;-92
2022/06/02 03:13:01;;;;;;;;;;;;;;;;;;6271726;22;19913;-89
2022/06/02 03:15:27;;;;;;;;;;;;;;;;;;6271930;22;20062;-89
2022/06/02 03:17:53;;;;;;;;;;;;;;;;;;6269073;22;20388;-92
2022/06/02 03:20:19;;;;;;;;;;;;;;;;;;6240292;22;20352;-88
2022/06/02 03:22:45;;;;;;;;;;;;;;;;;;6272039;22;19968;-88
2022/06/02 03:25:11;;;;;;;;;;;;;;;;;;6271293;22;20185;-89
2022/06/02 03:27:37;;;;;;;;;;;;;;;;;;6242901;22;20352;-88
2022/06/02 03:30:03;;;;;;;;;;;;;;;;;;6244746;22;20020;-88
2022/06/02 03:32:29;;;;;;;;;;;;;;;;;;6242165;22;25117;-90
2022/06/02 03:34:55;;;;;;;;;;;;;;;;;;6268758;22;20673;-89
2022/06/02 03:37:21;;;;;;;;;;;;;;;;;;6245203;22;20035;-91
2022/06/02 03:39:47;;;;;;;;;;;;;;;;;;6269419;22;20348;-92
2022/06/02 03:42:12;;;;;;;;;;;;;;;;;;6244057;22;20185;-92
2022/06/02 03:44:40;;;;;;;;;;;;;;;;;;6241616;22;20340;-90
2022/06/02 03:47:06;;;;;;;;;;;;;;;;;;6272337;22;20012;-88
2022/06/02 03:49:32;;;;;;;;;;;;;;;;;;6270311;22;20345;-93
2022/06/02 03:51:58;;;;;;;;;;;;;;;;;;6271202;22;20010;-90
2022/06/02 03:54:24;;;;;;;;;;;;;;;;;;6269642;22;20348;-92
2022/06/02 03:56:50;;;;;;;;;;;;;;;;;;6245422;22;20371;-93
2022/06/02 03:59:16;;;;;;;;;;;;;;;;;;6278334;22;20341;-90
2022/06/02 04:01:51;;;;;;;;;;;;;;;;;;6299194;22;20017;-90
2022/06/02 04:04:17;;;;;;;;;;;;;;;;;;6277814;22;20085;-94
2022/06/02 04:06:42;;;;;;;;;;;;;;;;;;6245753;22;20424;-95
2022/06/02 04:09:08;;;;;;;;;;;;;;;;;;6244258;22;20199;-94
2022/06/02 04:14:22;;;;;;;;;;;;;;;;;;6273356;22;20010;-93
2022/06/02 04:16:54;;;;;;;1795.47;511.33;;;;;;;;;;6269703;22;20357;-89
2022/06/02 04:22:06;;;;;;;;;;;;;;;;;;6265792;22;20245;-93
2022/06/02 04:24:51;;;;;;;1732.20;496.83;;;;;;;;;;6268346;22;20851;-90
2022/06/02 04:27:19;;;;;;;;;;;;;;;;;;6243033;22;20004;-91
2022/06/02 04:29:45;;;;;;;;;;;;;;;;;;6272052;22;20032;-90
2022/06/02 04:32:30;;;;;;;1526.90;487.30;;;;;;;;;;6242810;22;20240;-92
2022/06/02 04:35:22;;;;;;;1503.10;483.60;;;;;;;;;;6271222;22;20491;-89
2022/06/02 04:38:04;;;;;;;1479.78;470.35;;;;;;;;;;6235802;22;20049;-90
2022/06/02 04:40:48;;;;;;;1483.17;480.40;;;;;;;;;;6243303;22;20004;-90
2022/06/02 04:43:15;;;;;;;1489.50;488.00;;;;;;;;;;6244568;22;20390;-90
2022/06/02 04:45:43;;;;;;;;;;;;;;;;;;6243954;22;20030;-92
2022/06/02 04:48:09;;;;;;;;;;;;;;;;;;6244307;22;20015;-92
2022/06/02 04:50:55;;;;;;;1494.80;497.30;;;;;;;;;;6245035;22;19899;-91
2022/06/02 04:53:32;;;;;;;1579.55;452.27;;;;;;;;;;6269142;22;20412;-94
2022/06/02 04:56:07;;;;;;;1495.05;459.00;;;;;;;;;;6271027;22;20010;-92
2022/06/02 04:58:45;;;;;;;1506.45;482.77;;;;;;;;;;6270318;22;20087;-91
2022/06/02 05:01:38;;;;;;;1469.25;471.92;;;;;;;;;;6270182;22;19999;-92
2022/06/02 05:04:10;;;;;;;1483.57;487.35;;;;;;;;;;6245082;22;20000;-91
2022/06/02 05:06:51;;;;;;;1464.63;481.15;;;;;;;;;;6270329;22;19899;-90
2022/06/02 05:09:17;;;;;;;;;;;;;;;;;;6270653;22;20011;-91
2022/06/02 05:12:02;;;;;;;1487.50;491.00;;;;;;;;;;6270226;22;20462;-89
2022/06/02 05:14:28;;;;;;;;;;;;;;;;;;6268811;22;20004;-90
2022/06/02 05:17:13;;;;;;;1474.00;496.53;;;;;;;;;;6271010;22;20142;-88
2022/06/02 05:19:52;;;;;;;1475.00;489.08;;;;;;;;;;6269666;22;20030;-90
2022/06/02 05:22:28;;;;;;;;;;;;;;;;;;;;;
2022/06/02 05:25:17;;;;;;;1546.05;456.42;;;;;;;;;;6268582;22;20423;-91
2022/06/02 05:28:00;;;;;;;1481.63;464.50;;;;;;;;;;6270898;22;20069;-91
2022/06/02 05:30:47;;;;;;;;;;;;;;;;;;;;;
2022/06/02 05:36:46;;;;;;;1477.77;489.47;;;;;;;;;;6162864;23;19935;-91
2022/06/02 05:39:39;;;;;;;1433.70;474.48;;;;;;;;;;6152898;23;20457;-90
2022/06/02 05:42:22;;;;;;;1394.93;454.52;;;;;;;;;;6254186;22;20386;-91
2022/06/02 05:45:14;;;;;;;;;;;;;;;;;;;;;
2022/06/02 05:47:54;;;;;;;1371.30;453.08;;;;;;;;;;6272470;22;20491;-90
2022/06/02 05:50:32;;;;;;;1396.40;464.98;;;;;;;;;;6244565;22;20079;-91
2022/06/02 05:53:11;;;;;;;1427.55;483.52;;;;;;;;;;6243339;22;20019;-90
2022/06/02 05:56:05;;;;;;;;;;;;;;;;;;;;;
2022/06/02 05:58:53;;;;;;;1400.20;467.20;;;;;;;;;;6270529;22;20404;-91
2022/06/02 06:01:22;;;;;;;1385.95;463.95;;;;;;;;;;6243578;22;20282;-91
2022/06/02 06:03:55;;;;;;;1397.65;464.20;;;;;;;;;;6244900;22;20030;-90
2022/06/02 06:06:21;;;;;;;1414.63;472.45;;;;;;;;;;6243864;22;20008;-88
2022/06/02 06:08:47;;;;;;;1395.95;462.67;;;;;;;;;;6273782;22;20000;-89
2022/06/02 06:11:13;;;;;;;1378.63;452.33;;;;;;;;;;6246735;22;20000;-88
2022/06/02 06:13:58;;;;;;;1390.28;452.38;;;;;;;;;;6272649;22;20091;-89
2022/06/02 06:16:46;;;;;;;1330.70;428.15;;;;;;;;;;6245896;22;20054;-90
2022/06/02 06:19:13;;;;;;;1333.65;428.90;;;;;;;;;;6244999;22;20012;-88
2022/06/02 06:21:57;;;;;;;1335.60;428.35;;;;;;;;;;6273041;22;20000;-89
2022/06/02 06:24:42;;;;;;;1354.70;436.50;;;;;;;;;;6245639;22;20337;-90
2022/06/02 06:27:12;;;;;;;1391.15;449.30;;;;;;;;;;6272938;22;20536;-89
2022/06/02 06:29:50;;;;;;;1344.75;422.63;;;;;;;;;;6273168;22;20279;-90
2022/06/02 06:32:22;;;;;;;1330.35;414.23;;;;;;;;;;6247001;22;20095;-92
2022/06/02 06:34:48;;;;;;;1340.13;417.45;;;;;;;;;;6246196;22;20018;-89
2022/06/02 06:37:43;;;;;;;1441.32;409.20;;;;;;;;;;6282766;22;20386;-89
2022/06/02 06:40:21;;;;;;;1309.00;395.42;;;;;;;;;;6296565;22;20007;-89
2022/06/02 06:43:01;;;;;;;1310.47;395.13;;;;;;;;;;6302693;22;20047;-88
2022/06/02 06:45:31;;;;;;;1328.68;406.58;;;;;;;;;;6250006;22;20463;-90
2022/06/02 06:48:00;;;;;;;1314.38;401.38;;;;;;;;;;6274531;22;20094;-89
2022/06/02 06:50:44;;;;;;;1321.38;404.70;;;;;;;;;;6246058;22;20003;-89
2022/06/02 06:53:18;;;;;;;1307.57;397.80;;;;;;;;;;6272592;22;20014;-88
2022/06/02 06:55:57;;;;;;;1335.40;417.67;;;;;;;;;;6246096;22;20026;-89
2022/06/02 06:58:31;;;;;;;1346.55;420.30;;;;;;;;;;6245171;22;20038;-89
2022/06/02 07:00:59;;;;;;;1337.00;410.00;;;;;;;;;;6272949;22;20448;-89
2022/06/02 07:03:25;;;;;;;;;;;;;;;;;;6246208;22;20494;-90
2022/06/02 07:05:52;;;;;;;1332.47;412.95;;;;;;;;;;6246099;22;19900;-87
2022/06/02 07:08:38;;;;;;;1405.93;455.08;;;;;;;;;;6245676;22;20049;-89
2022/06/02 07:14:06;;;;;;;1388.03;440.70;;;;;;;;;;6272014;22;20061;-88
2022/06/02 07:16:38;;;;;;;1424.15;462.08;;;;;;;;;;6244864;22;20000;-89
2022/06/02 07:19:16;;;;;;;1448.32;467.75;;;;;;;;;;6244977;22;20085;-87
2022/06/02 07:21:43;;;;;;;1423.65;454.90;;;;;;;;;;6272966;22;20000;-89
2022/06/02 07:24:28;;;;;;;1407.80;446.65;;;;;;;;;;6245589;22;20011;-88
2022/06/02 07:27:01;;;;;;;1418.70;455.85;;;;;;;;;;6245188;22;20011;-89
2022/06/02 07:29:46;;;;;;;1412.15;449.17;;;;;;;;;;6245176;22;20011;-89
2022/06/02 07:32:19;;;;;;;1417.72;449.60;;;;;;;;;;6245575;22;20317;-88
2022/06/02 07:34:52;;;;;;;1416.07;445.48;;;;;;;;;;6245962;22;20011;-88
2022/06/02 07:37:33;;;;;;;1417.57;443.25;;;;;;;;;;6246462;22;20026;-90
2022/06/02 07:40:09;;;;;;;1429.10;448.30;;;;;;;;;;6271860;22;19999;-89
2022/06/02 07:42:35;;;;;;;1433.00;443.45;;;;;;;;;;6272088;22;20004;-88
2022/06/02 07:45:10;;;;;;;1452.50;446.35;;;;;;;;;;6244883;22;20093;-89
2022/06/02 07:47:36;;;;;;;1457.55;450.23;;;;;;;;;;6272147;22;20010;-87
2022/06/02 07:50:04;;;;;;;1386.55;411.58;;;;;;;;;;6244584;22;20004;-88
2022/06/02 07:52:30;;;;;;;1404.70;420.10;;;;;;;;;;6271859;22;19999;-88
2022/06/02 07:55:08;;;;;;;1415.72;421.45;;;;;;;;;;6244843;22;20062;-89
2022/06/02 07:57:40;;;;;;;1389.35;406.02;;;;;;;;;;6245316;22;20015;-89
2022/06/02 08:00:13;;;;;;;1421.60;421.23;;;;;;;;;;6271492;22;19999;-89
2022/06/02 08:02:45;;;;;;;1440.35;424.02;;;;;;;;;;6244285;22;20098;-90
2022/06/02 08:05:23;;;;;;;1450.13;431.58;;;;;;;;;;6244597;22;20033;-89
2022/06/02 08:07:54;;;;;;;1491.28;451.50;;;;;;;;;;6244535;22;20008;-90
2022/06/02 08:10:45;;;;;;;1474.55;443.00;;;;;;;;;;6271942;22;20023;-90
2022/06/02 08:13:11;;;;;;;1483.00;449.38;;;;;;;;;;6271919;22;20007;-87
2022/06/02 08:15:52;;;;;;;1511.32;464.20;;;;;;;;;;6272277;22;20507;-89
2022/06/02 08:18:21;;;;;;;1496.20;452.33;;;;;;;;;;6272084;22;20011;-89
2022/06/02 08:20:47;;;;;;;1493.93;448.92;;;;;;;;;;6273121;22;20329;-88
2022/06/02 08:23:26;;;;;;;1498.40;451.05;;;;;;;;;;6272795;22;20031;-89
2022/06/02 08:25:55;;;;;;;1514.20;457.65;;;;;;;;;;6244684;22;20000;-89
2022/06/02 08:28:31;;;;;;;1516.25;457.25;;;;;;;;;;6272043;22;19995;-89
2022/06/02 08:31:04;;;;;;;1524.68;458.00;;;;;;;;;;6271327;22;19999;-89
2022/06/02 08:33:36;;;;;;;1504.88;449.48;;;;;;;;;;6244261;22;20053;-88
2022/06/02 08:36:13;;;;;;;1507.93;450.63;;;;;;;;;;6271153;22;20011;-91
2022/06/02 08:38:49;;;;;;;1518.13;455.77;;;;;;;;;;6245075;22;20039;-90
2022/06/02 08:41:33;;;;;;;1528.63;459.48;;;;;;;;;;6272864;22;20000;-88
2022/06/02 08:43:59;;;;;;;1542.68;463.15;;;;;;;;;;6244235;22;20008;-90
2022/06/02 08:46:44;;;;;;;1523.28;452.40;;;;;;;;;;6244581;22;20038;-89
2022/06/02 08:49:20;;;;;;;1525.22;451.10;;;;;;;;;;6244767;22;20379;-90
2022/06/02 08:51:46;;;;;;;1545.32;462.02;;;;;;;;;;6272915;22;19995;-89
2022/06/02 08:54:21;;;;;;;1544.30;461.27;;;;;;;;;;6271147;22;20437;-89
2022/06/02 08:56:50;;;;;;;1544.70;455.73;;;;;;;;;;6245429;22;20313;-88
2022/06/02 08:59:16;;;;;;;1573.18;464.02;;;;;;;;;;6272511;22;20069;-91
2022/06/02 09:01:42;;;;;;;1577.70;462.67;;;;;;;;;;6244584;22;20011;-88
2022/06/02 09:04:11;;;;;;;1564.65;455.92;;;;;;;;;;6271708;22;20891;-91
2022/06/02 09:06:49;;;;;;;1600.70;466.65;;;;;;;;;;6271869;22;20007;-88
2022/06/02 09:09:32;;;;;;;1635.72;474.83;;;;;;;;;;6245263;22;20015;-90
2022/06/02 09:12:18;;;;;;;1629.43;471.25;;;;;;;;;;6244756;22;20038;-91
2022/06/02 09:15:06;;;;;;;1642.85;474.50;;;;;;;;;;6272302;22;20080;-89
2022/06/02 09:17:46;;;;;;;1631.15;472.00;;;;;;;;;;6271211;22;20008;-89
2022/06/02 09:20:14;;;;;;;1587.43;455.67;;;;;;;;;;6244223;22;20079;-91
2022/06/02 09:22:40;;;;;;;1629.43;473.50;;;;;;;;;;6271449;22;19999;-90
2022/06/02 09:25:31;;;;;;;1674.35;490.92;;;;;;;;;;6244444;22;20083;-89
2022/06/02 09:28:06;;;;;;;1518.80;424.42;;;;;;;;;;6270715;22;19996;-90
2022/06/02 09:30:50;;;;;;;1586.93;457.70;;;;;;;;;;6271426;22;19999;-90
2022/06/02 09:33:43;;;;;;;1599.78;459.30;;;;;;;;;;6272426;22;20074;-88
2022/06/02 09:36:09;;;;;;;1528.05;427.20;;;;;;;;;;6270673;22;20082;-90
2022/06/02 09:38:56;;;;;;;1545.82;437.92;;;;;;;;;;6270997;22;20328;-89
2022/06/02 09:41:27;;;;;;;1493.50;409.23;;;;;;;;;;6272748;22;20026;-90
2022/06/02 09:44:12;;;;;;;1543.38;434.40;;;;;;;;;;6246046;22;20325;-89
2022/06/02 09:46:54;;;;;;;1620.88;468.90;;;;;;;;;;6246954;22;20016;-88
2022/06/02 09:49:38;;;;;;;1614.78;467.00;;;;;;;;;;6246550;22;20004;-89
2022/06/02 09:52:11;;;;;;;1636.10;475.63;;;;;;;;;;6273098;22;20318;-89
2022/06/02 09:54:47;;;;;;;1637.72;475.90;;;;;;;;;;6273058;22;20016;-89
2022/06/02 09:57:55;;;;;;;1648.18;478.05;;;;;;;;;;6274672;22;20004;-88
2022/06/02 10:00:29;;;;;;;1676.43;489.20;;;;;;;;;;6272943;22;20007;-90
2022/06/02 10:03:04;;;;;;;1680.75;488.55;;;;;;;;;;6245677;22;20308;-89
2022/06/02 10:05:41;;;;;;;1689.90;491.23;;;;;;;;;;6246077;22;20320;-90
2022/06/02 10:08:22;;;;;;;1699.05;493.98;;;;;;;;;;6245778;22;20336;-89
2022/06/02 10:11:04;;;;;;;1712.53;496.35;;;;;;;;;;6272854;22;20004;-89
2022/06/02 10:13:31;;;;;;;1756.47;508.67;;;;;;;;;;6245680;22;20011;-90
2022/06/02 10:16:18;;;;;;;1755.78;507.35;;;;;;;;;;6272553;22;19999;-90
2022/06/02 10:19:03;;;;;;;1747.53;500.90;;;;;;;;;;6247062;22;20011;-90
2022/06/02 10:21:44;;;;;;;1762.07;508.83;;;;;;;;;;6273301;22;20436;-89
2022/06/02 10:24:29;;;;;;;1775.05;512.88;;;;;;;;;;6273158;22;20018;-90
2022/06/02 10:27:07;;;;;;;1779.38;516.70;;;;;;;;;;6246103;22;20440;-90
2022/06/02 10:29:50;;;;;;;1767.18;515.90;;;;;;;;;;6273143;22;20028;-88
2022/06/02 10:32:27;;;;;;;1784.45;521.83;;;;;;;;;;6247049;22;20065;-90
2022/06/02 10:34:56;;;;;;;1791.25;522.58;;;;;;;;;;6245772;22;19999;-88
2022/06/02 10:37:28;;;;;;;1771.47;513.30;;;;;;;;;;6273529;22;20034;-90
2022/06/02 10:40:03;;;;;;;1772.60;510.70;;;;;;;;;;6245344;22;20073;-88
2022/06/02 10:42:29;;;;;;;1770.68;509.38;;;;;;;;;;6273108;22;20031;-89
2022/06/02 10:45:13;;;;;;;1789.78;516.25;;;;;;;;;;6272218;22;20121;-89
2022/06/02 10:47:41;;;;;;;1781.18;513.67;;;;;;;;;;6271050;22;20012;-89
2022/06/02 10:50:31;;;;;;;1794.38;520.83;;;;;;;;;;6245042;22;20004;-88
2022/06/02 10:53:11;;;;;;;1816.10;526.65;;;;;;;;;;6244508;22;20010;-89
2022/06/02 10:55:47;;;;;;;1811.53;522.10;;;;;;;;;;6245154;22;19995;-89
2022/06/02 10:58:32;;;;;;;1817.55;524.75;;;;;;;;;;6245868;22;20449;-89
2022/06/02 11:01:01;;;;;;;1827.70;527.40;;;;;;;;;;6271516;22;20019;-89
2022/06/02 11:03:45;;;;;;;1809.63;516.78;;;;;;;;;;6272123;22;20003;-88
2022/06/02 11:06:18;;;;;;;1841.13;522.92;;;;;;;;;;6272303;22;20002;-90
2022/06/02 11:08:47;;;;;;;1835.60;524.72;;;;;;;;;;6273160;22;20007;-89
2022/06/02 11:11:33;;;;;;;1818.97;517.20;;;;;;;;;;6245560;22;20402;-89
2022/06/02 11:14:10;;;;;;;1784.25;504.00;;;;;;;;;;6244422;22;20043;-88
2022/06/02 11:16:42;;;;;;;1787.88;500.65;;;;;;;;;;6270449;22;20440;-88
2022/06/02 11:19:12;;;;;;;1822.38;518.17;;;;;;;;;;6245064;22;20024;-90
2022/06/02 11:21:41;;;;;;;1844.90;523.33;;;;;;;;;;6245287;22;20391;-88
2022/06/02 11:24:10;;;;;;;1874.38;529.90;;;;;;;;;;6270948;22;20000;-89
2022/06/02 11:26:39;;;;;;;1867.95;523.38;;;;;;;;;;6244751;22;20019;-88
2022/06/02 11:29:05;;;;;;;1885.75;530.20;;;;;;;;;;6271963;22;20000;-88
2022/06/02 11:31:31;;;;;;;1893.60;528.03;;;;;;;;;;6271597;22;19900;-89
2022/06/02 11:34:15;;;;;;;1892.47;524.78;;;;;;;;;;6271880;22;20232;-88
2022/06/02 11:36:42;;;;;;;1893.60;529.67;;;;;;;;;;6272252;22;19996;-89
2022/06/02 11:39:08;;;;;;;1908.50;534.92;;;;;;;;;;6244912;22;20311;-90
2022/06/02 11:41:53;;;;;;;1921.65;541.60;;;;;;;;;;6272470;22;20375;-87
2022/06/02 11:44:28;;;;;;;1910.03;537.67;;;;;;;;;;6272393;22;20003;-89
2022/06/02 11:47:13;;;;;;;1904.03;536.42;;;;;;;;;;6271340;22;19996;-88
2022/06/02 11:49:39;;;;;;;1905.78;533.83;;;;;;;;;;6280352;22;20012;-87
2022/06/02 11:52:24;;;;;;;1916.20;535.03;;;;;;;;;;6291242;22;19992;-88
2022/06/02 11:54:50;;;;;;;1916.65;538.55;;;;;;;;;;6294922;22;20015;-89
2022/06/02 11:57:16;;;;;;;1926.07;541.95;;;;;;;;;;6259491;22;20543;-88
2022/06/02 11:59:42;;;;;;;1916.55;537.63;;;;;;;;;;6272475;22;19926;-87
2022/06/02 12:02:18;;;;;;;1892.80;528.95;;;;;;;;;;6270679;22;20247;-87
2022/06/02 12:05:16;;;;;;;1897.45;529.90;;;;;;;;;;6272624;22;20028;-88
2022/06/02 12:07:53;;;;;;;1900.65;531.50;;;;;;;;;;6220867;22;20336;-87
2022/06/02 12:10:19;;;;;;;1850.75;516.83;;;;;;;;;;6271398;22;19910;-87
2022/06/02 12:13:03;;;;;;;1903.90;536.67;;;;;;;;;;6272216;22;19907;-88
2022/06/02 12:15:51;;;;;;;1908.07;537.55;;;;;;;;;;6243288;22;20003;-89
2022/06/02 12:18:19;;;;;;;;;;;;;;;;;;6226730;22;19986;-89
2022/06/02 12:20:56;;;;;;;1905.40;541.10;;;;;;;;;;6272365;22;19903;-88
2022/06/02 12:23:22;;;;;;;1932.07;551.05;;;;;;;;;;6271778;22;19999;-88
2022/06/02 12:25:49;;;;;;;1943.45;556.17;;;;;;;;;;6271586;22;20002;-87
2022/06/02 12:28:24;;;;;;;1949.57;560.58;;;;;;;;;;6245112;22;20016;-87
2022/06/02 12:31:02;;;;;;;1941.50;551.35;;;;;;;;;;6270160;22;20328;-88
2022/06/02 12:33:34;;;;;;;1932.65;548.75;;;;;;;;;;6244065;22;20004;-88
2022/06/02 12:36:07;;;;;;;1933.85;552.08;;;;;;;;;;6271336;22;19996;-88
2022/06/02 12:38:46;;;;;;;1938.05;551.05;;;;;;;;;;6271556;22;20450;-88
2022/06/02 12:41:12;;;;;;;1951.03;554.38;;;;;;;;;;6270819;22;20340;-88
2022/06/02 12:43:57;;;;;;;1957.75;555.28;;;;;;;;;;6271270;22;20388;-89
2022/06/02 12:46:23;;;;;;;1976.87;557.47;;;;;;;;;;6243488;22;20433;-88
2022/06/02 12:48:49;;;;;;;1984.67;558.67;;;;;;;;;;6270532;22;19910;-88
2022/06/02 12:51:28;;;;;;;1999.38;563.78;;;;;;;;;;6271953;22;20033;-88
2022/06/02 12:53:56;;;;;;;1999.90;572.75;;;;;;;;;;6270704;22;20004;-88
2022/06/02 12:56:41;;;;;;;1999.90;567.73;;;;;;;;;;6270912;22;20003;-87
2022/06/02 12:59:13;;;;;;;1999.90;569.95;;;;;;;;;;6269753;22;20043;-88
2022/06/02 13:01:45;;;;;;;1999.90;567.10;;;;;;;;;;6268746;22;20007;-90
2022/06/02 13:04:30;;;;;;;1999.90;560.92;;;;;;;;;;6242506;22;20129;-89
2022/06/02 13:06:59;;;;;;;1999.90;569.45;;;;;;;;;;6270363;22;19996;-88
2022/06/02 13:09:31;;;;;;;1999.90;568.83;;;;;;;;;;6244049;22;20121;-89
2022/06/02 13:11:57;;;;;;;1999.90;578.10;;;;;;;;;;6270725;22;20039;-87
2022/06/02 13:14:33;;;;;;;1999.90;581.85;;;;;;;;;;6270945;22;19899;-89
2022/06/02 13:17:18;;;;;;;1999.90;570.33;;;;;;;;;;6242947;22;20003;-88
2022/06/02 13:19:49;;;;;;;1999.90;589.35;;;;;;;;;;6271814;22;20003;-88
2022/06/02 13:22:35;;;;;;;1999.90;583.90;;;;;;;;;;6271883;22;20280;-88
2022/06/02 13:25:01;;;;;;;1999.90;591.20;;;;;;;;;;6243262;22;20460;-89
2022/06/02 13:27:27;;;;;;;1999.90;586.08;;;;;;;;;;6270850;22;20428;-89
2022/06/02 13:30:10;;;;;;;1999.90;580.50;;;;;;;;;;6242734;22;19974;-89
2022/06/02 13:32:42;;;;;;;1999.90;588.33;;;;;;;;;;6243830;22;20314;-89
2022/06/02 13:35:15;;;;;;;1999.90;585.05;;;;;;;;;;6270856;22;20463;-89
2022/06/02 13:37:44;;;;;;;1999.90;580.03;;;;;;;;;;6270716;22;20412;-87
2022/06/02 13:40:18;;;;;;;1998.80;568.20;;;;;;;;;;6243571;22;20004;-87
2022/06/02 13:43:03;;;;;;;1946.63;547.67;;;;;;;;;;6244703;22;20379;-87
2022/06/02 13:45:48;;;;;;;1979.95;564.20;;;;;;;;;;6270299;22;20004;-89
2022/06/02 13:48:36;;;;;;;1977.97;564.50;;;;;;;;;;6272029;22;20498;-88
2022/06/02 13:51:02;;;;;;;1974.03;568.10;;;;;;;;;;6270931;22;20038;-88
2022/06/02 13:57:30;;;;;;;1988.38;572.22;;;;;;;;;;6271020;22;19899;-88
2022/06/02 13:59:46;;;;;;;1994.95;577.88;;;;;;;;;;6246794;22;20018;-89
2022/06/02 14:02:15;;;;;;;1988.13;575.80;;;;;;;;;;6243190;22;20316;-88
2022/06/02 14:05:06;;;;;;;1996.18;577.28;;;;;;;;;;6270522;22;20070;-88
2022/06/02 14:07:32;;;;;;;1992.38;579.45;;;;;;;;;;6270778;22;20063;-88
2022/06/02 14:09:58;;;;;;;1994.38;583.83;;;;;;;;;;6270171;22;19923;-90
2022/06/02 14:12:24;;;;;;;1989.13;582.45;;;;;;;;;;6270733;22;20011;-88
2022/06/02 14:15:09;;;;;;;1999.90;594.90;;;;;;;;;;6269793;22;20000;-88
2022/06/02 14:17:35;;;;;;;1999.85;580.42;;;;;;;;;;6270728;22;20118;-89
2022/06/02 14:20:16;;;;;;;1997.93;580.05;;;;;;;;;;6270865;22;19910;-88
2022/06/02 14:23:01;;;;;;;1995.65;583.25;;;;;;;;;;6243671;22;20007;-88
2022/06/02 14:25:33;;;;;;;1999.13;588.63;;;;;;;;;;6270748;22;20057;-88
2022/06/02 14:28:14;;;;;;;1999.90;598.50;;;;;;;;;;6270317;22;20003;-88
2022/06/02 14:30:40;;;;;;;1999.90;607.40;;;;;;;;;;6271041;22;20016;-87
2022/06/02 14:33:18;;;;;;;1999.90;614.20;;;;;;;;;;6244085;22;20028;-88
2022/06/02 14:35:44;;;;;;;;;;;;;;;;;;6272628;22;20023;-88
2022/06/02 14:38:10;;;;;;;;;;;;;;;;;;6271264;22;20031;-89
2022/06/02 14:40:45;;;;;;;1999.90;607.10;;;;;;;;;;6271832;22;20066;-88
2022/06/02 14:43:24;;;;;;;1999.90;589.72;;;;;;;;;;6272323;22;20024;-88
2022/06/02 14:46:09;;;;;;;1999.90;606.60;;;;;;;;;;6271533;22;20439;-88
2022/06/02 14:48:35;;;;;;;;;;;;;;;;;;6272089;22;20029;-88
2022/06/02 14:51:01;;;;;;;;;;;;;;;;;;6243951;22;20525;-86
2022/06/02 14:53:27;;;;;;;;;;;;;;;;;;6272211;22;20050;-88
2022/06/02 14:55:53;;;;;;;;;;;;;;;;;;6271596;22;20019;-88
2022/06/02 14:58:19;;;;;;;;;;;;;;;;;;6244135;22;20062;-88
2022/06/02 15:00:50;;;;;;;;;;;;;;;;;;6271840;22;19899;-89
2022/06/02 15:03:35;;;;;;;1999.90;596.37;;;;;;;;;;6245606;22;20035;-88
2022/06/02 15:06:03;;;;;;;1999.90;593.00;;;;;;;;;;6244503;22;20004;-88
2022/06/02 15:08:30;;;;;;;;;;;;;;;;;;6272133;22;20493;-87
2022/06/02 15:11:14;;;;;;;1999.90;579.35;;;;;;;;;;6271724;22;19906;-87
2022/06/02 15:13:55;;;;;;;1999.90;599.70;;;;;;;;;;6244638;22;20098;-88
2022/06/02 15:16:39;;;;;;;1999.90;576.65;;;;;;;;;;6243760;22;20389;-89
2022/06/02 15:19:10;;;;;;;1999.90;580.60;;;;;;;;;;6270674;22;20444;-88
2022/06/02 15:21:55;;;;;;;1999.90;584.67;;;;;;;;;;6270241;22;20003;-88
2022/06/02 15:24:24;;;;;;;1999.90;595.55;;;;;;;;;;6243045;22;19948;-88
2022/06/02 15:27:09;;;;;;;1999.90;575.78;;;;;;;;;;6270267;22;20075;-90
2022/06/02 15:29:41;;;;;;;1999.90;585.67;;;;;;;;;;6270064;22;20000;-88